Central Fund of Canada Limited (USA) (NYSEMKT:CEF)

CAPS Rating: 3 out of 5

Provides an investment alternative for investors interested in holding marketable gold and silver related investments. Invests primarily in long-term holdings of gold and silver bullion.

Results 1 - 99 of 732 : 1 2 3 4 5 6 7 8 Next »
Top
Pick
Member Name Member
Rating
Start
Date
Call Time
Frame
Start
Price
Stock
Gain
Index
Gain
Score Commentary
OnyongJun 90.76 9/2/2014 Outperform 1Y $13.52 +0.37% +0.10% +0.27 0 Comment
JesseL < 20 6/25/2014 Outperform 5Y $14.33 -5.30% +3.27% -8.58 0 Comment
bocacampeon 93.25 3/31/2014 Outperform 5Y $13.85 -2.02% +7.48% -9.50 0 Comment
Momentum22 29.80 3/18/2014 Outperform 5Y $14.74 -7.94% +6.92% -14.86 0 Comment
goingdown < 20 3/12/2014 Outperform 5Y $14.84 -8.53% +7.54% -16.07 0 Comment
Xucolat 53.02 11/17/2009 2/17/2014 Outperform 5Y $13.94 -2.66% +80.86% -83.52 1 Comment
unixopsys 44.08 1/22/2014 Outperform 1Y $13.57 0% +8.79% -8.79 0 Comment
wackyfunster 81.55 1/16/2014 Outperform 5Y $13.67 -0.73% +8.86% -9.59 0 Comment
2win < 20 1/14/2014 Outperform NS $13.87 -2.16% +10.06% -12.22 1 Comment
timomimo 88.58 1/2/2014 Outperform 5Y $13.58 -0.07% +9.68% -9.75 0 Comment
BrodyBorder 28.18 12/5/2013 Outperform 5Y $13.30 +2.03% +11.84% -9.81 0 Comment
emptylarder 28.99 11/13/2013 Outperform 5Y $13.98 -2.93% +13.01% -15.94 0 Comment
mwisslead 47.53 10/29/2013 Outperform 3Y $15.22 -10.84% +13.44% -24.28 0 Comment
seakat45 < 20 10/14/2013 Outperform 5Y $14.15 -4.10% +18.56% -22.66 0 Comment
BruceInCola 98.13 9/24/2013 Outperform 5Y $14.40 -5.77% +18.08% -23.84 0 Comment
maxy88 28.72 9/10/2013 Outperform 5Y $15.55 -12.74% +19.07% -31.81 0 Comment
mistermiranga 97.54 8/27/2013 Outperform 5Y $16.63 -18.38% +22.27% -40.65 0 Comment
kurtdabear 31.41 8/23/2013 Outperform 5Y $16.21 -16.28% +20.63% -36.91 1 Comment
aguadaboca 32.77 7/30/2013 Outperform 5Y $14.42 -5.90% +18.63% -24.53 0 Comment
sail2brasil 37.44 7/24/2013 Outperform 5Y $14.82 -8.44% +18.81% -27.25 0 Comment
winebroker2000 20.09 7/24/2013 Outperform 5Y $14.80 -8.31% +18.15% -26.46 0 Comment
Rangergold67 < 20 7/15/2013 Outperform 5Y $14.19 -4.37% +19.43% -23.81 0 Comment
bigmacm22 < 20 7/12/2013 Outperform 5Y $14.15 -4.10% +19.85% -23.95 0 Comment
cashsage 29.31 7/8/2013 Outperform 5Y $13.62 -0.38% +22.38% -22.76 0 Comment
Adam1226 24.49 1/19/2010 7/6/2013 Outperform 5Y $14.35 -5.43% +75.14% -80.58 1 Comment
Swimms 70.48 6/21/2013 Outperform 5Y $14.14 -4.04% +26.26% -30.29 0 Comment
Stas3000 85.53 6/18/2013 Outperform 5Y $15.49 -12.39% +21.74% -34.13 0 Comment
Momentum21 94.89 5/24/2013 Outperform 5Y $15.71 -13.62% +21.97% -35.59 0 Comment
u2monee < 20 5/21/2013 Outperform 5Y $15.53 -12.62% +20.07% -32.69 0 Comment
SellOrNotinMay < 20 5/2/2013 Outperform 3M $16.82 -19.32% +25.61% -44.93 0 Comment
iannnn 28.95 4/19/2013 Outperform 5Y $16.30 -16.74% +29.84% -46.59 0 Comment
binve < 20 4/18/2013 Outperform NS $16.13 -15.87% +29.74% -45.60 0 Comment
kainvest 55.14 4/16/2013 Outperform 1Y $16.47 -17.60% +27.95% -45.55 1 Comment
vinelli 75.33 4/15/2013 Outperform 5Y $16.03 -15.35% +27.08% -42.44 0 Comment
goldminer11 < 20 4/15/2013 Outperform 5Y $16.08 -15.61% +27.03% -42.64 0 Comment
TheBest70 < 20 3/22/2013 Outperform 5Y $19.76 -31.32% +29.24% -60.56 0 Comment
Terok1313 30.72 3/8/2013 Outperform 3Y $19.56 -30.61% +29.19% -59.81 0 Comment
tinyworld < 20 3/7/2013 Outperform 1Y $19.74 -31.25% +29.68% -60.92 1 Comment
rzld36 29.83 3/6/2013 Outperform 5Y $19.46 -30.26% +29.56% -59.82 0 Comment
VeryShiny < 20 3/5/2013 Outperform 3M $19.65 -30.93% +30.55% -61.49 0 Comment
OoohShiny < 20 2/25/2013 Outperform 3M $20.01 -32.17% +32.46% -64.63 0 Comment
Gloriness < 20 2/21/2013 Outperform 3M $19.63 -30.86% +33.23% -64.09 0 Comment
IndianaLarry < 20 2/19/2013 Underperform 3M $20.17 -32.71% +31.66% +64.37 0 Comment
This player feels very strongly about this pick and has marked it a Top Pick. Top Picks do not affect a player’s score. rd80 98.27 2/4/2013 Outperform 5Y $21.49 -36.84% +33.46% -70.30 1 Comment
JeffersonAdams 89.73 3/26/2008 1/29/2013 Outperform 5Y $13.26 +2.36% +54.73% -52.36 0 Comment
galpick 43.91 10/1/2008 1/27/2013 Outperform 5Y $10.95 +23.97% +78.71% -54.74 0 Comment
Vince1172 26.75 1/24/2013 Outperform 5Y $21.90 -38.02% +34.50% -72.53 0 Comment
piesyor < 20 1/22/2013 Underperform 1Y $21.94 -38.14% +35.25% +73.38 0 Comment
jerryguru69 94.87 12/13/2012 Underperform 5Y $22.41 -39.43% +39.88% +79.31 0 Comment
bolthole22 < 20 11/27/2012 Outperform 5Y $23.13 -41.33% +42.70% -84.03 0 Comment
Adenovir 76.09 8/31/2007 11/26/2012 Outperform NS $9.07 +49.53% +43.02% +6.51 1 Comment
acesurewould < 20 11/19/2012 Outperform 5Y $22.88 -40.68% +44.91% -85.59 0 Comment
JoeleneW 82.48 10/19/2007 10/1/2012 Outperform 5Y $10.08 +34.62% +37.29% -2.66 0 Comment
whatevmatil < 20 9/28/2012 Outperform 5Y $23.79 -42.97% +39.23% -82.19 0 Comment
stockdatamaster 51.83 9/19/2012 Outperform 5Y $23.86 -43.14% +36.66% -79.80 0 Comment
gman444 28.79 9/5/2012 Outperform 5Y $22.34 -39.24% +42.19% -81.43 0 Comment
puccini3005 29.59 6/24/2009 8/27/2012 Outperform 3Y $11.75 +15.53% +123.68% -108.15 1 Comment
tcpprog < 20 8/24/2012 Outperform 5Y $21.32 -36.34% +42.98% -79.32 0 Comment
oldfashionedway 35.36 8/23/2011 8/22/2012 Outperform 3Y $25.13 -46.00% +74.20% -120.20 0 Comment
Moekie < 20 8/6/2012 Outperform 5Y $20.14 -32.61% +43.18% -75.79 0 Comment
This player feels very strongly about this pick and has marked it a Top Pick. Top Picks do not affect a player’s score. DarthMaul09 29.66 7/31/2012 Outperform 5Y $20.10 -32.48% +45.01% -77.49 1 Comment
rock338xxx < 20 6/7/2012 Outperform 5Y $20.98 -35.31% +50.30% -85.61 0 Comment
DanCooper76 < 20 6/1/2012 Outperform 5Y $19.62 -30.83% +55.36% -86.18 1 Comment
VanWilder < 20 5/11/2012 Outperform 5Y $19.79 -31.42% +47.40% -78.82 0 Comment
jkens < 20 10/29/2007 5/5/2012 Outperform 5Y $10.36 +31.00% +36.54% -5.54 0 Comment
marcd77 < 20 5/2/2012 Outperform 3Y $20.98 -35.31% +43.37% -78.68 0 Comment
phatchips767 < 20 4/24/2012 Outperform 1Y $21.09 -35.65% +46.53% -82.17 1 Comment
RockyMountainMan 97.91 4/10/2012 Outperform 5Y $21.39 -36.55% +45.42% -81.97 0 Comment
motleyanimal 85.99 2/29/2012 Outperform NS $22.93 -40.83% +46.32% -87.15 0 Comment
eeibbay < 20 11/30/2011 Outperform 5Y $22.30 -39.16% +61.70% -100.86 0 Comment
elboxeo < 20 11/25/2011 Outperform 5Y $21.41 -36.61% +72.37% -108.98 0 Comment
RallyCry < 20 11/23/2011 Outperform 5Y $21.69 -37.43% +69.91% -107.33 0 Comment
jdill23 < 20 11/22/2011 Outperform 1Y $22.05 -38.45% +68.49% -106.94 0 Comment
G8BigBoom 69.12 11/14/2011 Underperform 5Y $23.37 -41.94% +58.97% +100.92 0 Comment
LZAG < 20 11/11/2011 Outperform 5Y $23.38 -41.97% +59.43% -101.40 0 Comment
dss1343 < 20 11/3/2011 Outperform 1Y $23.02 -41.06% +60.85% -101.91 0 Comment
eldonbmyrtlbch < 20 10/28/2011 Outperform 3Y $23.26 -41.67% +56.73% -98.40 0 Comment
taylor2123 < 20 10/20/2011 Outperform 5Y $20.40 -33.48% +65.37% -98.85 0 Comment
Teknowizz 97.17 10/10/2011 Outperform 5Y $21.60 -37.17% +70.47% -107.64 0 Comment
dyskinetic 25.85 10/4/2011 Outperform 5Y $20.18 -32.75% +84.00% -116.75 0 Comment
JFiege 29.97 10/4/2011 Outperform 5Y $20.20 -32.82% +83.57% -116.40 0 Comment
squirrelgiggin 99.79 10/3/2011 Underperform 5Y $21.21 -36.01% +78.34% +114.35 0 Comment
Spyrig < 20 9/30/2011 Outperform 5Y $20.87 -34.97% +75.05% -110.02 0 Comment
veronafonte < 20 9/28/2011 Outperform 1Y $20.57 -34.04% +73.04% -107.08 0 Comment
mountaincouger 30.68 9/27/2011 Outperform 5Y $22.06 -38.47% +68.49% -106.97 0 Comment
cvdynasty2 99.83 9/26/2011 Outperform 5Y $21.01 -35.41% +74.66% -110.07 0 Comment
Fudex < 20 9/26/2011 Outperform 5Y $20.39 -33.44% +75.04% -108.48 0 Comment
This player feels very strongly about this pick and has marked it a Top Pick. Top Picks do not affect a player’s score. SamTheHobbit 29.94 9/23/2011 Outperform 5Y $20.99 -35.34% +77.12% -112.47 0 Comment
cvdynasty 99.95 9/23/2011 Outperform 5Y $20.99 -35.34% +77.12% -112.47 0 Comment
cecamadocv2 99.97 9/23/2011 Outperform 5Y $21.14 -35.80% +76.47% -112.27 0 Comment
EGTalbot < 20 9/23/2011 Outperform 3Y $21.70 -37.45% +76.90% -114.36 0 Comment
imobillc < 20 9/22/2011 Outperform 5Y $23.89 -43.21% +77.14% -120.34 0 Comment
pfoods6 < 20 9/20/2011 Outperform 1Y $25.18 -46.11% +66.48% -112.59 0 Comment
scluffman < 20 9/22/2010 9/17/2011 Outperform 3Y $16.34 -16.93% +76.75% -93.68 0 Comment
MathMusic 93.54 8/9/2011 9/15/2011 Outperform 1Y $22.88 -40.69% +75.05% -115.74 1 Comment
stationfool 55.70 9/14/2011 Outperform 5Y $25.05 -45.83% +68.93% -114.77 1 Comment
peachberrytea 67.94 9/13/2011 Outperform NS $24.55 -44.73% +71.39% -116.12 0 Comment
mmourani < 20 9/12/2011 Outperform 5Y $24.17 -43.86% +74.70% -118.56 0 Comment
frs62 81.44 7/7/2008 9/8/2011 Outperform 5Y $13.24 +2.52% +63.22% -60.71 1 Comment

Featured Broker Partners


Advertisement